KDIK

Dickinson - Theodore Roosevelt Regional Airport

Dickinson, North Dakota, USA
METAR KDIK 210656Z AUTO 14010KT 10SM CLR 05/02 A3003 RMK AO2 SLP172 T00500017 402000006
Observed Flight Rules
May-21 @ 06:56 UTC (12 minutes ago) Visual Flight Rules
Wind Visibility Clouds
140° at 10 knots 10 miles
  • Clear skies
Temperatures Readings
Current 5°C / 41°F
Dewpoint 2°C / 36°F
Humidity 81%
Altimeter 30.03" Hg
Pressure 1017.2 hPa
Elevation 788
METAR KDIK 210656Z AUTO 14010KT 10SM CLR 05/02 A3003 RMK AO2 SLP172 T00500017 402000006
Observed Flight Rules
May-21 @ 06:56 UTC
(12 minutes ago)
VFR
Wind Visibility
140° at 10 knots 10 miles
Clouds
  • Clear skies
Temperature Dewpoint
5°C / 41°F 2°C / 36°F
Humidity Altimeter Pressure
81% 30.03" Hg 1017.2 hPa